createdAt,value
2023-05-23T00:01:49.935Z,101331.41
2023-05-23T00:04:20.507Z,101315.56
2023-05-23T00:06:47.537Z,101313.28
2023-05-23T00:09:15.267Z,101313.66
2023-05-23T00:11:45.792Z,101306.59
2023-05-23T00:14:13.952Z,101285.47
2023-05-23T00:16:45.329Z,101292.47
2023-05-23T00:19:15.501Z,101283.81
2023-05-23T00:21:48.911Z,101278.66
2023-05-23T00:24:18.997Z,101279.81
2023-05-23T00:26:47.106Z,101281.91
2023-05-23T00:29:16.663Z,101279.28
2023-05-23T00:31:47.217Z,101280.38
2023-05-23T00:34:15.590Z,101273.56
2023-05-23T00:36:43.880Z,101274.03
2023-05-23T00:39:20.162Z,101280.03
2023-05-23T00:41:51.806Z,101270.81
2023-05-23T00:44:20.576Z,101268.19
2023-05-23T00:46:54.432Z,101269.75
2023-05-23T00:49:22.119Z,101271.41
2023-05-23T00:51:49.918Z,101252.41
2023-05-23T00:54:21.236Z,101269.03
2023-05-23T00:56:48.943Z,101264.34
2023-05-23T00:59:17.089Z,101263.84
2023-05-23T01:01:47.422Z,101264.00
2023-05-23T01:04:16.975Z,101255.03
2023-05-23T01:06:47.349Z,101260.16
2023-05-23T01:09:16.578Z,101260.72
2023-05-23T01:11:59.016Z,101268.03
2023-05-23T01:14:38.382Z,101269.81
2023-05-23T01:17:14.761Z,101271.81
2023-05-23T01:20:02.799Z,101269.47
2023-05-23T01:22:50.898Z,101270.63
2023-05-23T01:25:40.354Z,101272.00
2023-05-23T01:28:12.126Z,101274.44
2023-05-23T01:30:42.180Z,101272.91
2023-05-23T01:33:12.128Z,101266.13
2023-05-23T01:35:44.001Z,101268.41
2023-05-23T01:38:11.126Z,101265.34
2023-05-23T01:40:38.315Z,101263.34
2023-05-23T01:43:08.037Z,101264.53
2023-05-23T01:45:35.648Z,101269.22
2023-05-23T01:48:04.214Z,101273.22
2023-05-23T01:50:32.802Z,101271.47
2023-05-23T01:53:02.782Z,101275.69
2023-05-23T01:55:29.885Z,101276.97
2023-05-23T01:57:58.316Z,101280.13
2023-05-23T02:00:25.779Z,101282.59
2023-05-23T02:02:52.965Z,101270.97
2023-05-23T02:05:20.149Z,101279.56
2023-05-23T02:07:47.073Z,101268.13
2023-05-23T02:10:14.405Z,101274.94
2023-05-23T02:12:41.324Z,101277.41
2023-05-23T02:15:09.082Z,101272.91
2023-05-23T02:17:36.276Z,101268.94
2023-05-23T02:20:03.433Z,101268.34
2023-05-23T02:22:30.503Z,101273.13
2023-05-23T02:24:57.346Z,101275.00
2023-05-23T02:27:24.448Z,101279.66
2023-05-23T02:29:51.487Z,101277.91
2023-05-23T02:32:18.518Z,101272.97
2023-05-23T02:34:46.984Z,101277.75
2023-05-23T02:37:15.028Z,101278.78
2023-05-23T02:39:41.858Z,101276.97
2023-05-23T02:42:09.041Z,101271.16
2023-05-23T02:44:36.008Z,101279.88
2023-05-23T02:47:02.915Z,101279.94
2023-05-23T02:49:30.110Z,101284.81
2023-05-23T02:51:56.942Z,101288.78
2023-05-23T02:54:24.052Z,101283.16
2023-05-23T02:56:52.579Z,101276.72
2023-05-23T02:59:19.423Z,101286.72
2023-05-23T03:01:46.546Z,101291.50
2023-05-23T03:04:14.041Z,101285.28
2023-05-23T03:06:42.446Z,101284.81
2023-05-23T03:09:10.197Z,101287.50
2023-05-23T03:11:37.849Z,101288.31
2023-05-23T03:14:04.924Z,101283.03
2023-05-23T03:16:32.196Z,101277.69
2023-05-23T03:18:59.972Z,101283.78
2023-05-23T03:21:27.242Z,101282.47
2023-05-23T03:23:54.115Z,101284.41
2023-05-23T03:26:22.232Z,101282.28
2023-05-23T03:28:51.376Z,101286.69
2023-05-23T03:31:18.512Z,101293.22
2023-05-23T03:33:45.803Z,101288.28
2023-05-23T03:36:12.901Z,101286.28
2023-05-23T03:38:39.812Z,101284.88
2023-05-23T03:41:07.214Z,101296.44
2023-05-23T03:43:34.412Z,101286.88
2023-05-23T03:46:01.411Z,101294.97
2023-05-23T03:48:30.781Z,101286.22
2023-05-23T03:50:57.703Z,101285.72
2023-05-23T03:53:25.055Z,101288.84
2023-05-23T03:55:54.254Z,101287.06
2023-05-23T03:58:21.430Z,101284.06
2023-05-23T04:00:51.683Z,101282.28
2023-05-23T04:03:18.988Z,101281.59
2023-05-23T04:05:46.122Z,101278.22
2023-05-23T04:08:13.405Z,101287.09
2023-05-23T04:10:40.312Z,101281.09
2023-05-23T04:13:07.340Z,101290.66
2023-05-23T04:15:34.901Z,101294.69
2023-05-23T04:18:02.112Z,101301.06
2023-05-23T04:20:29.267Z,101296.94
2023-05-23T04:22:56.272Z,101300.19
2023-05-23T04:25:24.567Z,101295.69
2023-05-23T04:27:51.609Z,101291.22
2023-05-23T04:30:18.670Z,101305.63
2023-05-23T04:32:46.313Z,101299.81
2023-05-23T04:35:14.553Z,101308.84
2023-05-23T04:37:42.675Z,101302.06
2023-05-23T04:40:10.306Z,101311.72
2023-05-23T04:42:37.586Z,101295.34
2023-05-23T04:45:05.161Z,101309.72
2023-05-23T04:47:37.169Z,101311.28
2023-05-23T04:50:05.777Z,101301.00
2023-05-23T04:52:34.388Z,101320.59
2023-05-23T04:55:02.053Z,101311.47
2023-05-23T04:57:29.239Z,101308.91
2023-05-23T04:59:57.381Z,101314.44
2023-05-23T05:02:24.485Z,101314.88
2023-05-23T05:04:51.659Z,101312.81
2023-05-23T05:07:18.943Z,101316.81
2023-05-23T05:09:46.052Z,101320.72
2023-05-23T05:12:13.092Z,101321.50
2023-05-23T05:14:40.355Z,101319.63
2023-05-23T05:17:07.555Z,101315.47
2023-05-23T05:19:37.775Z,101326.56
2023-05-23T05:22:05.379Z,101316.91
2023-05-23T05:24:33.160Z,101321.88
2023-05-23T05:27:00.301Z,101324.03
2023-05-23T05:29:27.411Z,101326.50
2023-05-23T05:31:54.198Z,101312.34
2023-05-23T05:34:21.566Z,101312.66
2023-05-23T05:36:48.582Z,101315.25
2023-05-23T05:39:15.759Z,101319.78
2023-05-23T05:41:42.736Z,101328.94
2023-05-23T05:44:10.378Z,101319.41
2023-05-23T05:46:37.750Z,101327.50
2023-05-23T05:49:05.062Z,101340.38
2023-05-23T05:51:32.217Z,101336.19
2023-05-23T05:53:59.174Z,101344.63
2023-05-23T05:56:26.618Z,101326.75
2023-05-23T05:58:53.886Z,101355.09
2023-05-23T06:01:20.967Z,101346.13
2023-05-23T06:03:48.477Z,101356.72
2023-05-23T06:06:15.617Z,101340.63
2023-05-23T06:08:43.396Z,101353.09
2023-05-23T06:11:10.458Z,101356.75
2023-05-23T06:13:37.357Z,101360.19
2023-05-23T06:16:04.433Z,101361.53
2023-05-23T06:18:31.336Z,101374.69
2023-05-23T06:21:04.181Z,101384.59
2023-05-23T06:23:31.306Z,101377.94
2023-05-23T06:25:59.873Z,101383.69
2023-05-23T06:28:26.852Z,101394.69
2023-05-23T06:30:53.753Z,101385.56
2023-05-23T06:33:20.677Z,101394.63
2023-05-23T06:35:47.501Z,101400.63
2023-05-23T06:38:15.819Z,101401.38
2023-05-23T06:40:44.674Z,101412.88
2023-05-23T06:43:11.617Z,101414.19
2023-05-23T06:45:38.677Z,101422.81
2023-05-23T06:48:06.177Z,101410.22
2023-05-23T06:50:33.367Z,101433.47
2023-05-23T06:53:00.342Z,101433.13
2023-05-23T06:55:28.536Z,101427.53
2023-05-23T06:57:55.333Z,101438.28
2023-05-23T07:00:22.373Z,101439.16
2023-05-23T07:02:49.360Z,101442.38
2023-05-23T07:05:17.700Z,101440.03
2023-05-23T07:07:44.651Z,101448.03
2023-05-23T07:10:11.858Z,101447.94
2023-05-23T07:12:39.007Z,101460.97
2023-05-23T07:15:06.436Z,101457.97
2023-05-23T07:17:33.496Z,101470.28
2023-05-23T07:20:00.373Z,101466.41
2023-05-23T07:22:27.314Z,101469.56
2023-05-23T07:24:54.323Z,101463.25
2023-05-23T07:27:21.380Z,101467.81
2023-05-23T07:29:48.248Z,101468.19
2023-05-23T07:32:15.508Z,101469.63
2023-05-23T07:34:42.475Z,101466.97
2023-05-23T07:37:09.461Z,101475.63
2023-05-23T07:39:36.278Z,101480.13
2023-05-23T07:42:03.288Z,101488.56
2023-05-23T07:44:30.274Z,101486.84
2023-05-23T07:46:57.354Z,101494.78
2023-05-23T07:49:24.370Z,101487.41
2023-05-23T07:51:51.416Z,101488.81
2023-05-23T07:54:18.321Z,101497.72
2023-05-23T07:56:45.471Z,101499.06
2023-05-23T07:59:12.356Z,101495.13
2023-05-23T08:01:39.316Z,101508.09
2023-05-23T08:04:06.724Z,101508.94
2023-05-23T08:06:33.878Z,101515.72
2023-05-23T08:09:02.350Z,101513.09
2023-05-23T08:11:30.838Z,101522.50
2023-05-23T08:13:59.347Z,101518.63
2023-05-23T08:16:28.497Z,101522.06
2023-05-23T08:18:55.438Z,101533.28
2023-05-23T08:21:24.137Z,101532.94
2023-05-23T08:23:51.144Z,101535.50
2023-05-23T08:26:18.136Z,101547.22
2023-05-23T08:28:45.106Z,101542.59
2023-05-23T08:31:12.179Z,101555.34
2023-05-23T08:33:39.079Z,101562.91
2023-05-23T08:36:06.235Z,101557.81
2023-05-23T08:38:33.095Z,101579.94
2023-05-23T08:41:02.131Z,101574.28
2023-05-23T08:43:29.524Z,101572.16
2023-05-23T08:45:57.513Z,101576.25
2023-05-23T08:48:27.418Z,101581.69
2023-05-23T08:50:54.402Z,101569.34
2023-05-23T08:53:23.767Z,101578.13
2023-05-23T08:55:55.955Z,101589.97
2023-05-23T08:58:25.001Z,101594.91
2023-05-23T09:00:53.998Z,101601.19
2023-05-23T09:03:21.654Z,101607.13
2023-05-23T09:05:50.368Z,101605.31
2023-05-23T09:08:17.452Z,101607.44
2023-05-23T09:10:44.300Z,101603.28
2023-05-23T09:13:11.265Z,101624.41
2023-05-23T09:15:38.882Z,101612.56
2023-05-23T09:18:06.060Z,101622.94
2023-05-23T09:20:33.455Z,101628.91
2023-05-23T09:23:02.939Z,101636.31
2023-05-23T09:25:31.201Z,101635.66
2023-05-23T09:28:00.288Z,101638.63
2023-05-23T09:30:27.187Z,101643.09
2023-05-23T09:33:02.037Z,101639.47
2023-05-23T09:35:31.195Z,101650.84
2023-05-23T09:38:01.953Z,101658.59
2023-05-23T09:40:33.258Z,101656.28
2023-05-23T09:43:04.641Z,101663.34
2023-05-23T09:45:32.700Z,101675.09
2023-05-23T09:48:00.137Z,101666.84
2023-05-23T09:50:33.809Z,101656.13
2023-05-23T09:53:01.679Z,101663.13
2023-05-23T09:55:28.798Z,101666.47
2023-05-23T09:57:58.690Z,101675.56
2023-05-23T10:00:26.368Z,101677.47
2023-05-23T10:03:02.086Z,101674.84
2023-05-23T10:05:44.485Z,101686.97
2023-05-23T10:08:19.417Z,101696.56
2023-05-23T10:11:11.917Z,101685.97
2023-05-23T10:13:43.721Z,101680.22
2023-05-23T10:16:23.746Z,101688.22
2023-05-23T10:18:58.383Z,101674.19
2023-05-23T10:21:33.735Z,101687.22
2023-05-23T10:24:01.805Z,101690.06
2023-05-23T10:26:28.982Z,101695.63
2023-05-23T10:28:57.712Z,101696.25
2023-05-23T10:31:25.417Z,101707.44
2023-05-23T10:34:17.875Z,101709.47
2023-05-23T10:36:58.058Z,101698.72
2023-05-23T10:39:50.165Z,101704.38
2023-05-23T10:42:30.764Z,101706.28
2023-05-23T10:45:23.736Z,101712.00
2023-05-23T10:47:53.016Z,101713.59
2023-05-23T10:50:37.531Z,101715.00
2023-05-23T10:53:09.776Z,101724.41
2023-05-23T10:55:37.522Z,101727.66
2023-05-23T10:58:21.849Z,101722.59
2023-05-23T11:00:57.069Z,101727.66
2023-05-23T11:03:46.122Z,101737.94
2023-05-23T11:06:45.041Z,101724.81
2023-05-23T11:09:21.086Z,101717.09
2023-05-23T11:11:58.242Z,101719.22
2023-05-23T11:14:38.323Z,101718.53
2023-05-23T11:17:14.161Z,101731.69
2023-05-23T11:19:57.134Z,101731.94
2023-05-23T11:22:28.110Z,101739.22
2023-05-23T11:24:56.185Z,101746.19
2023-05-23T11:27:28.963Z,101737.75
2023-05-23T11:30:09.867Z,101754.38
2023-05-23T11:32:37.763Z,101749.34
2023-05-23T11:35:07.181Z,101741.03
2023-05-23T11:37:34.805Z,101747.66
2023-05-23T11:40:27.483Z,101748.13
2023-05-23T11:42:58.004Z,101757.91
2023-05-23T11:45:26.073Z,101754.34
2023-05-23T11:47:53.384Z,101743.63
2023-05-23T11:50:24.594Z,101748.25
2023-05-23T11:52:52.176Z,101737.00
2023-05-23T11:55:23.577Z,101747.06
2023-05-23T11:57:52.085Z,101730.41
2023-05-23T12:00:19.890Z,101750.97
2023-05-23T12:02:49.966Z,101748.81
2023-05-23T12:05:17.175Z,101764.72
2023-05-23T12:07:49.771Z,101775.06
2023-05-23T12:10:18.127Z,101774.13
2023-05-23T12:12:45.801Z,101779.81
2023-05-23T12:15:13.813Z,101781.84
2023-05-23T12:17:47.346Z,101785.00
2023-05-23T12:20:14.487Z,101765.00
2023-05-23T12:22:42.575Z,101780.06
2023-05-23T12:25:11.434Z,101776.38
2023-05-23T12:27:42.018Z,101789.47
2023-05-23T12:30:16.494Z,101787.66
2023-05-23T12:32:45.514Z,101798.53
2023-05-23T12:35:14.184Z,101790.66
2023-05-23T12:37:43.902Z,101802.34
2023-05-23T12:40:19.911Z,101806.22
2023-05-23T12:42:58.731Z,101806.94
2023-05-23T12:45:33.188Z,101809.72
2023-05-23T12:48:01.430Z,101809.81
2023-05-23T12:50:28.568Z,101806.59
2023-05-23T12:52:56.445Z,101803.72
2023-05-23T12:55:23.359Z,101812.50
2023-05-23T12:57:50.489Z,101795.09
2023-05-23T13:00:18.505Z,101825.25
2023-05-23T13:02:45.931Z,101820.72
2023-05-23T13:05:13.052Z,101827.34
2023-05-23T13:07:40.092Z,101826.38
2023-05-23T13:10:07.578Z,101841.47
2023-05-23T13:12:35.029Z,101833.88
2023-05-23T13:15:01.960Z,101840.59
2023-05-23T13:17:28.877Z,101841.41
2023-05-23T13:19:55.787Z,101837.50
2023-05-23T13:22:22.692Z,101845.91
2023-05-23T13:24:49.561Z,101844.34
2023-05-23T13:27:17.001Z,101836.03
2023-05-23T13:29:45.421Z,101839.19
2023-05-23T13:32:12.353Z,101843.72
2023-05-23T13:34:39.806Z,101842.75
2023-05-23T13:37:06.628Z,101853.31
2023-05-23T13:39:33.592Z,101848.94
2023-05-23T13:42:00.829Z,101864.84
2023-05-23T13:44:29.341Z,101858.53
2023-05-23T13:46:58.888Z,101861.84
2023-05-23T13:49:25.907Z,101856.59
2023-05-23T13:51:52.770Z,101866.59
2023-05-23T13:54:19.828Z,101863.97
2023-05-23T13:56:46.717Z,101863.97
2023-05-23T13:59:14.130Z,101870.25
2023-05-23T14:01:41.534Z,101875.78
2023-05-23T14:04:08.554Z,101873.53
2023-05-23T14:06:36.904Z,101871.44
2023-05-23T14:09:04.113Z,101877.34
2023-05-23T14:11:31.189Z,101879.19
2023-05-23T14:13:58.123Z,101872.03
2023-05-23T14:16:25.116Z,101892.72
2023-05-23T14:18:52.578Z,101890.44
2023-05-23T14:21:19.493Z,101893.75
2023-05-23T14:23:46.465Z,101882.81
2023-05-23T14:26:15.716Z,101897.34
2023-05-23T14:28:42.710Z,101892.44
2023-05-23T14:31:09.710Z,101894.69
2023-05-23T14:33:36.534Z,101894.56
2023-05-23T14:36:04.209Z,101845.34
2023-05-23T14:38:31.051Z,101900.34
2023-05-23T14:40:59.370Z,101904.03
2023-05-23T14:43:26.353Z,101899.75
2023-05-23T14:45:53.227Z,101902.91
2023-05-23T14:48:20.198Z,101921.03
2023-05-23T14:50:47.029Z,101917.97
2023-05-23T14:53:13.928Z,101933.66
2023-05-23T14:55:41.507Z,101919.13
2023-05-23T14:58:08.750Z,101919.44
2023-05-23T15:00:35.584Z,101920.38
2023-05-23T15:03:02.549Z,101921.72
2023-05-23T15:05:29.442Z,101925.56
2023-05-23T15:07:56.714Z,101917.53
2023-05-23T15:10:23.629Z,101921.59
2023-05-23T15:12:50.733Z,101930.06
2023-05-23T15:15:23.294Z,101934.84
2023-05-23T15:17:51.411Z,101938.75
2023-05-23T15:20:18.778Z,101941.16
2023-05-23T15:22:45.954Z,101928.38
2023-05-23T15:25:12.834Z,101942.72
2023-05-23T15:27:39.611Z,101938.59
2023-05-23T15:30:07.280Z,101947.69
2023-05-23T15:32:34.320Z,101938.13
2023-05-23T15:35:01.245Z,101937.59
2023-05-23T15:37:30.006Z,101938.84
2023-05-23T15:39:56.996Z,101938.22
2023-05-23T15:42:23.920Z,101936.56
2023-05-23T15:44:51.386Z,101957.00
2023-05-23T15:47:19.079Z,101947.44
2023-05-23T15:49:46.056Z,101955.34
2023-05-23T15:52:13.280Z,101946.19
2023-05-23T15:54:40.156Z,101946.59
2023-05-23T15:57:07.140Z,101945.59
2023-05-23T15:59:36.488Z,101950.53
2023-05-23T16:02:07.049Z,101948.75
2023-05-23T16:04:36.347Z,101945.75
2023-05-23T16:07:03.988Z,101952.66
2023-05-23T16:09:30.896Z,101955.50
2023-05-23T16:11:58.679Z,101950.34
2023-05-23T16:14:25.966Z,101953.13
2023-05-23T16:16:52.883Z,101961.22
2023-05-23T16:19:23.010Z,101964.41
2023-05-23T16:21:50.821Z,101953.13
2023-05-23T16:24:18.601Z,101939.66
2023-05-23T16:26:45.586Z,101951.44
2023-05-23T16:29:12.623Z,101966.84
2023-05-23T16:31:39.678Z,101960.97
2023-05-23T16:34:06.693Z,101944.25
2023-05-23T16:36:33.695Z,101953.03
2023-05-23T16:39:00.573Z,101953.69
2023-05-23T16:41:28.569Z,101954.34
2023-05-23T16:43:55.950Z,101952.03
2023-05-23T16:46:23.128Z,101959.81
2023-05-23T16:48:50.456Z,101952.00
2023-05-23T16:51:17.537Z,101953.03
2023-05-23T16:53:44.335Z,101954.69
2023-05-23T16:56:11.255Z,101950.66
2023-05-23T16:58:39.066Z,101948.88
2023-05-23T17:01:07.226Z,101955.75
2023-05-23T17:03:34.618Z,101959.84
2023-05-23T17:06:01.668Z,101961.50
2023-05-23T17:08:28.674Z,101967.75
2023-05-23T17:10:55.556Z,101970.31
2023-05-23T17:13:22.333Z,101968.16
2023-05-23T17:15:51.588Z,101968.88
2023-05-23T17:18:18.987Z,101964.19
2023-05-23T17:20:46.070Z,101973.41
2023-05-23T17:23:13.151Z,101968.81
2023-05-23T17:25:40.517Z,101977.28
2023-05-23T17:28:07.955Z,101976.34
2023-05-23T17:30:35.146Z,101970.19
2023-05-23T17:33:02.301Z,101989.03
2023-05-23T17:35:29.312Z,101986.34
2023-05-23T17:37:58.487Z,101991.63
2023-05-23T17:40:25.839Z,101993.16
2023-05-23T17:42:53.403Z,101985.09
2023-05-23T17:45:20.230Z,101995.75
2023-05-23T17:47:47.437Z,101996.19
2023-05-23T17:50:14.478Z,101992.13
2023-05-23T17:52:41.999Z,101990.16
2023-05-23T17:55:09.582Z,101993.38
2023-05-23T17:57:36.808Z,102008.09
2023-05-23T18:00:04.294Z,102006.75
2023-05-23T18:02:31.680Z,102013.38
2023-05-23T18:04:59.401Z,102010.91
2023-05-23T18:07:26.645Z,102017.41
2023-05-23T18:09:53.580Z,102019.19
2023-05-23T18:12:21.298Z,102016.72
2023-05-23T18:14:48.471Z,102029.59
2023-05-23T18:17:17.624Z,102030.81
2023-05-23T18:19:45.921Z,102021.69
2023-05-23T18:22:14.554Z,101977.66
2023-05-23T18:24:41.955Z,102013.44
2023-05-23T18:27:09.116Z,102030.78
2023-05-23T18:29:36.562Z,102038.09
2023-05-23T18:32:04.017Z,102021.50
2023-05-23T18:34:30.989Z,102035.78
2023-05-23T18:36:57.986Z,102034.75
2023-05-23T18:39:25.150Z,102031.38
2023-05-23T18:41:52.334Z,102031.81
2023-05-23T18:44:20.855Z,102036.19
2023-05-23T18:46:48.325Z,102028.81
2023-05-23T18:49:15.386Z,102027.88
2023-05-23T18:51:43.099Z,102026.78
2023-05-23T18:54:10.222Z,102027.88
2023-05-23T18:56:37.399Z,102026.78
2023-05-23T18:59:04.542Z,102030.97
2023-05-23T19:01:31.414Z,102029.38
2023-05-23T19:03:58.496Z,102034.22
2023-05-23T19:06:25.895Z,102025.91
2023-05-23T19:08:52.901Z,102029.22
2023-05-23T19:11:19.749Z,102026.69
2023-05-23T19:13:46.797Z,102022.50
2023-05-23T19:16:13.826Z,102023.16
2023-05-23T19:18:40.645Z,102040.31
2023-05-23T19:21:07.637Z,102027.94
2023-05-23T19:23:34.700Z,102036.75
2023-05-23T19:26:02.347Z,102035.66
2023-05-23T19:28:29.188Z,102033.94
2023-05-23T19:30:56.512Z,102037.78
2023-05-23T19:33:23.501Z,102041.66
2023-05-23T19:35:50.428Z,102049.97
2023-05-23T19:38:17.483Z,102052.41
2023-05-23T19:40:47.341Z,102051.53
2023-05-23T19:43:14.217Z,102054.19
2023-05-23T19:45:41.320Z,102061.72
2023-05-23T19:48:08.351Z,102055.97
2023-05-23T19:50:35.292Z,102064.34
2023-05-23T19:53:02.315Z,102070.56
2023-05-23T19:55:29.130Z,102075.00
2023-05-23T19:57:56.112Z,102071.72
2023-05-23T20:00:23.512Z,102069.53
2023-05-23T20:02:50.831Z,102078.44
2023-05-23T20:05:17.974Z,102073.78
2023-05-23T20:07:44.887Z,102078.88
2023-05-23T20:10:12.129Z,102075.00
2023-05-23T20:12:39.170Z,102080.56
2023-05-23T20:15:06.783Z,102076.59
2023-05-23T20:17:33.729Z,102076.63
2023-05-23T20:20:01.074Z,102069.91
2023-05-23T20:22:28.435Z,102078.59
2023-05-23T20:24:55.827Z,102076.41
2023-05-23T20:27:22.670Z,102073.31
2023-05-23T20:29:50.670Z,102074.94
2023-05-23T20:32:17.785Z,102076.44
2023-05-23T20:34:44.812Z,102064.16
2023-05-23T20:37:13.987Z,102073.78
2023-05-23T20:39:44.518Z,102075.38
2023-05-23T20:42:11.764Z,102076.72
2023-05-23T20:44:38.920Z,102078.75
2023-05-23T20:47:07.011Z,102077.63
2023-05-23T20:49:35.008Z,102047.13
2023-05-23T20:52:02.514Z,102068.38
2023-05-23T20:54:29.605Z,102063.13
2023-05-23T20:56:56.780Z,102062.09
2023-05-23T20:59:26.487Z,102067.00
2023-05-23T21:01:53.832Z,102070.31
2023-05-23T21:04:20.816Z,102076.81
2023-05-23T21:06:47.998Z,102067.22
2023-05-23T21:09:16.672Z,102067.53
2023-05-23T21:11:44.810Z,102066.56
2023-05-23T21:14:11.792Z,102055.16
2023-05-23T21:16:38.657Z,102067.50
2023-05-23T21:19:05.600Z,102059.50
2023-05-23T21:21:32.496Z,102063.41
2023-05-23T21:23:59.307Z,102063.19
2023-05-23T21:26:26.168Z,102070.69
2023-05-23T21:28:53.079Z,102070.38
2023-05-23T21:31:29.803Z,102063.59
2023-05-23T21:34:18.453Z,102063.03
2023-05-23T21:36:49.075Z,102061.06
2023-05-23T21:39:15.987Z,102052.59
2023-05-23T21:41:42.870Z,102062.91
2023-05-23T21:44:09.987Z,102057.53
2023-05-23T21:46:37.555Z,102055.88
2023-05-23T21:49:04.476Z,102056.13
2023-05-23T21:51:31.388Z,102065.84
2023-05-23T21:53:58.510Z,102060.03
2023-05-23T21:56:26.590Z,102065.91
2023-05-23T21:58:53.488Z,102054.56
2023-05-23T22:01:20.511Z,102049.81
2023-05-23T22:03:47.495Z,102051.19
2023-05-23T22:06:14.685Z,102053.19
2023-05-23T22:08:42.367Z,102043.50
2023-05-23T22:11:10.555Z,102059.31
2023-05-23T22:13:37.452Z,102060.50
2023-05-23T22:16:12.996Z,102058.81
2023-05-23T22:18:51.403Z,102048.00
2023-05-23T22:21:21.413Z,102062.16
2023-05-23T22:23:48.360Z,102056.06
2023-05-23T22:26:15.426Z,102059.66
2023-05-23T22:28:42.690Z,102061.84
2023-05-23T22:31:12.053Z,102063.25
2023-05-23T22:33:41.285Z,102045.16
2023-05-23T22:36:09.916Z,102064.03
2023-05-23T22:38:38.046Z,102061.25
2023-05-23T22:41:05.505Z,102057.94
2023-05-23T22:43:32.565Z,102059.06
2023-05-23T22:45:59.544Z,102038.84
2023-05-23T22:48:26.712Z,102049.88
2023-05-23T22:50:57.392Z,102053.75
2023-05-23T22:53:24.416Z,102064.78
2023-05-23T22:55:51.351Z,102068.09
2023-05-23T22:58:20.817Z,102076.41
2023-05-23T23:00:47.990Z,102071.09
2023-05-23T23:03:15.641Z,102068.53
2023-05-23T23:05:42.658Z,102063.19
2023-05-23T23:08:09.583Z,102042.78
2023-05-23T23:10:36.443Z,102056.25
2023-05-23T23:13:03.446Z,102055.69
2023-05-23T23:15:30.501Z,102060.47
2023-05-23T23:17:57.770Z,102056.31
2023-05-23T23:20:25.123Z,102054.38
2023-05-23T23:22:52.346Z,102056.66
2023-05-23T23:25:19.447Z,102050.25
2023-05-23T23:27:46.328Z,102050.47
2023-05-23T23:30:13.413Z,102048.31
2023-05-23T23:32:40.333Z,102047.34
2023-05-23T23:35:07.666Z,102058.78
2023-05-23T23:37:34.465Z,102053.72
2023-05-23T23:40:01.456Z,102051.06
2023-05-23T23:42:28.525Z,102053.00
2023-05-23T23:44:55.442Z,102061.69
2023-05-23T23:47:22.360Z,102060.34
2023-05-23T23:49:49.400Z,102054.03
2023-05-23T23:52:16.404Z,102049.88
2023-05-23T23:54:43.426Z,102049.91
2023-05-23T23:57:14.264Z,102049.66
2023-05-23T23:59:41.877Z,102053.63
